Terminal Aerodrome Forecast
Issued by NWS North Platte, NE

Home | Current Version | Previous Version | Text Only | Print | Product List | Glossary Off
Versions: 1 2 3 4 5 6 7 8 9 10 11 12 13 14 15

000
FTUS43 KLBF 280520
TAFVTN
TAF
KVTN 280520Z 2806/2906 15014G22KT P6SM SCT100 BKN200
     FM280900 23015G23KT P6SM BKN100 BKN200
     FM281100 31019G29KT P6SM SCT100 SCT250
     FM290100 32009KT P6SM SKC=

USA.gov is the U.S. government's official web portal to all federal, state and local government web resources and services.